sensor_id;sensor_type;location;lat;lon;timestamp;temperature;humidity
39957;DHT22;48483;44.640;7.494;2023-07-29T00:01:03;23.50;99.90
39957;DHT22;48483;44.640;7.494;2023-07-29T00:03:32;23.50;99.90
39957;DHT22;48483;44.640;7.494;2023-07-29T00:06:00;23.50;99.90
39957;DHT22;48483;44.640;7.494;2023-07-29T00:08:26;23.50;99.90
39957;DHT22;48483;44.640;7.494;2023-07-29T00:10:53;23.50;99.90
39957;DHT22;48483;44.640;7.494;2023-07-29T00:13:21;23.50;99.90
39957;DHT22;48483;44.640;7.494;2023-07-29T00:15:48;23.50;99.90
39957;DHT22;48483;44.640;7.494;2023-07-29T00:18:14;23.50;99.90
39957;DHT22;48483;44.640;7.494;2023-07-29T00:20:41;23.50;99.90
39957;DHT22;48483;44.640;7.494;2023-07-29T00:23:10;23.60;99.90
39957;DHT22;48483;44.640;7.494;2023-07-29T00:25:37;23.50;99.90
39957;DHT22;48483;44.640;7.494;2023-07-29T00:28:04;23.50;99.90
39957;DHT22;48483;44.640;7.494;2023-07-29T00:30:30;23.60;99.90
39957;DHT22;48483;44.640;7.494;2023-07-29T00:32:58;23.50;99.90
39957;DHT22;48483;44.640;7.494;2023-07-29T00:35:25;23.50;99.90
39957;DHT22;48483;44.640;7.494;2023-07-29T00:37:53;23.60;99.90
39957;DHT22;48483;44.640;7.494;2023-07-29T00:40:22;23.50;99.90
39957;DHT22;48483;44.640;7.494;2023-07-29T00:42:49;23.50;99.90
39957;DHT22;48483;44.640;7.494;2023-07-29T00:45:16;23.50;99.90
39957;DHT22;48483;44.640;7.494;2023-07-29T00:47:44;23.50;99.90
39957;DHT22;48483;44.640;7.494;2023-07-29T00:50:13;23.50;99.90
39957;DHT22;48483;44.640;7.494;2023-07-29T00:52:40;23.60;99.90
39957;DHT22;48483;44.640;7.494;2023-07-29T00:55:08;23.60;99.90
39957;DHT22;48483;44.640;7.494;2023-07-29T00:57:36;23.50;99.90
39957;DHT22;48483;44.640;7.494;2023-07-29T01:00:06;23.50;99.90
39957;DHT22;48483;44.640;7.494;2023-07-29T01:02:33;23.60;99.90
39957;DHT22;48483;44.640;7.494;2023-07-29T01:05:00;23.50;99.90
39957;DHT22;48483;44.640;7.494;2023-07-29T01:07:30;23.50;99.90
39957;DHT22;48483;44.640;7.494;2023-07-29T01:10:02;23.50;99.90
39957;DHT22;48483;44.640;7.494;2023-07-29T01:12:39;23.50;99.90
39957;DHT22;48483;44.640;7.494;2023-07-29T01:15:13;23.50;99.90
39957;DHT22;48483;44.640;7.494;2023-07-29T01:17:46;23.50;99.90
39957;DHT22;48483;44.640;7.494;2023-07-29T01:20:15;23.50;99.90
39957;DHT22;48483;44.640;7.494;2023-07-29T01:22:42;23.50;99.90
39957;DHT22;48483;44.640;7.494;2023-07-29T01:25:11;23.50;99.90
39957;DHT22;48483;44.640;7.494;2023-07-29T01:27:37;23.50;99.90
39957;DHT22;48483;44.640;7.494;2023-07-29T01:30:05;23.50;99.90
39957;DHT22;48483;44.640;7.494;2023-07-29T01:32:37;23.40;99.90
39957;DHT22;48483;44.640;7.494;2023-07-29T01:35:15;23.40;99.90
39957;DHT22;48483;44.640;7.494;2023-07-29T01:37:46;23.50;99.90
39957;DHT22;48483;44.640;7.494;2023-07-29T01:40:17;23.50;99.90
39957;DHT22;48483;44.640;7.494;2023-07-29T01:42:45;23.40;99.90
39957;DHT22;48483;44.640;7.494;2023-07-29T01:45:12;23.40;99.90
39957;DHT22;48483;44.640;7.494;2023-07-29T01:47:39;23.40;99.90
39957;DHT22;48483;44.640;7.494;2023-07-29T01:50:08;23.40;99.90
39957;DHT22;48483;44.640;7.494;2023-07-29T01:52:35;23.30;99.90
39957;DHT22;48483;44.640;7.494;2023-07-29T01:55:02;23.10;99.90
39957;DHT22;48483;44.640;7.494;2023-07-29T01:57:31;23.00;99.90
39957;DHT22;48483;44.640;7.494;2023-07-29T01:59:58;22.90;99.90
39957;DHT22;48483;44.640;7.494;2023-07-29T02:02:25;22.80;99.90
39957;DHT22;48483;44.640;7.494;2023-07-29T02:04:52;22.80;99.90
39957;DHT22;48483;44.640;7.494;2023-07-29T02:07:19;22.80;99.90
39957;DHT22;48483;44.640;7.494;2023-07-29T02:09:46;22.80;99.90
39957;DHT22;48483;44.640;7.494;2023-07-29T02:12:13;22.90;99.90
39957;DHT22;48483;44.640;7.494;2023-07-29T02:14:41;22.90;99.90
39957;DHT22;48483;44.640;7.494;2023-07-29T02:17:08;22.90;99.90
39957;DHT22;48483;44.640;7.494;2023-07-29T02:19:35;22.90;99.90
39957;DHT22;48483;44.640;7.494;2023-07-29T02:22:02;22.90;99.90
39957;DHT22;48483;44.640;7.494;2023-07-29T02:24:29;22.90;99.90
39957;DHT22;48483;44.640;7.494;2023-07-29T02:26:55;23.00;99.90
39957;DHT22;48483;44.640;7.494;2023-07-29T02:29:22;23.00;99.90
39957;DHT22;48483;44.640;7.494;2023-07-29T02:31:51;22.90;99.90
39957;DHT22;48483;44.640;7.494;2023-07-29T02:34:18;22.90;99.90
39957;DHT22;48483;44.640;7.494;2023-07-29T02:36:45;22.90;99.90
39957;DHT22;48483;44.640;7.494;2023-07-29T02:39:12;22.90;99.90
39957;DHT22;48483;44.640;7.494;2023-07-29T02:41:39;22.90;99.90
39957;DHT22;48483;44.640;7.494;2023-07-29T02:44:05;22.90;99.90
39957;DHT22;48483;44.640;7.494;2023-07-29T02:46:33;22.90;99.90
39957;DHT22;48483;44.640;7.494;2023-07-29T02:49:01;22.90;99.90
39957;DHT22;48483;44.640;7.494;2023-07-29T02:51:29;22.90;99.90
39957;DHT22;48483;44.640;7.494;2023-07-29T02:53:55;22.80;99.90
39957;DHT22;48483;44.640;7.494;2023-07-29T02:56:22;22.90;99.90
39957;DHT22;48483;44.640;7.494;2023-07-29T02:58:49;22.90;99.90
39957;DHT22;48483;44.640;7.494;2023-07-29T03:01:17;22.80;99.90
39957;DHT22;48483;44.640;7.494;2023-07-29T03:03:45;22.80;99.90
39957;DHT22;48483;44.640;7.494;2023-07-29T03:06:14;22.80;99.90
39957;DHT22;48483;44.640;7.494;2023-07-29T03:08:41;22.80;99.90
39957;DHT22;48483;44.640;7.494;2023-07-29T03:11:10;22.80;99.90
39957;DHT22;48483;44.640;7.494;2023-07-29T03:13:37;22.80;99.90
39957;DHT22;48483;44.640;7.494;2023-07-29T03:16:05;22.70;99.90
39957;DHT22;48483;44.640;7.494;2023-07-29T03:18:32;22.70;99.90
39957;DHT22;48483;44.640;7.494;2023-07-29T03:20:59;22.70;99.90
39957;DHT22;48483;44.640;7.494;2023-07-29T03:23:28;22.70;99.90
39957;DHT22;48483;44.640;7.494;2023-07-29T03:25:55;22.70;99.90
39957;DHT22;48483;44.640;7.494;2023-07-29T03:28:26;22.70;99.90
39957;DHT22;48483;44.640;7.494;2023-07-29T03:30:53;22.70;99.90
39957;DHT22;48483;44.640;7.494;2023-07-29T03:33:20;22.70;99.90
39957;DHT22;48483;44.640;7.494;2023-07-29T03:35:47;22.70;99.90
39957;DHT22;48483;44.640;7.494;2023-07-29T03:38:15;22.70;99.90
39957;DHT22;48483;44.640;7.494;2023-07-29T03:40:44;22.60;99.90
39957;DHT22;48483;44.640;7.494;2023-07-29T03:43:11;22.70;99.90
39957;DHT22;48483;44.640;7.494;2023-07-29T03:45:38;22.60;99.90
39957;DHT22;48483;44.640;7.494;2023-07-29T03:48:06;22.60;99.90
39957;DHT22;48483;44.640;7.494;2023-07-29T03:50:34;22.50;99.90
39957;DHT22;48483;44.640;7.494;2023-07-29T03:53:03;22.60;99.90
39957;DHT22;48483;44.640;7.494;2023-07-29T03:55:30;22.50;99.90
39957;DHT22;48483;44.640;7.494;2023-07-29T03:57:59;22.50;99.90
39957;DHT22;48483;44.640;7.494;2023-07-29T04:00:27;22.50;99.90
39957;DHT22;48483;44.640;7.494;2023-07-29T04:02:54;22.50;99.90
39957;DHT22;48483;44.640;7.494;2023-07-29T04:05:20;22.40;99.90
39957;DHT22;48483;44.640;7.494;2023-07-29T04:07:48;22.40;99.90
39957;DHT22;48483;44.640;7.494;2023-07-29T04:10:15;22.40;99.90
39957;DHT22;48483;44.640;7.494;2023-07-29T04:12:42;22.50;99.90
39957;DHT22;48483;44.640;7.494;2023-07-29T04:15:11;22.50;99.90
39957;DHT22;48483;44.640;7.494;2023-07-29T04:17:37;22.50;99.90
39957;DHT22;48483;44.640;7.494;2023-07-29T04:20:05;22.50;99.90
39957;DHT22;48483;44.640;7.494;2023-07-29T04:22:34;22.40;99.90
39957;DHT22;48483;44.640;7.494;2023-07-29T04:25:01;22.40;99.90
39957;DHT22;48483;44.640;7.494;2023-07-29T04:27:28;22.40;99.90
39957;DHT22;48483;44.640;7.494;2023-07-29T04:29:55;22.30;99.90
39957;DHT22;48483;44.640;7.494;2023-07-29T04:32:23;22.40;99.90
39957;DHT22;48483;44.640;7.494;2023-07-29T04:34:50;22.40;99.90
39957;DHT22;48483;44.640;7.494;2023-07-29T04:37:16;22.40;99.90
39957;DHT22;48483;44.640;7.494;2023-07-29T04:39:43;22.40;99.90
39957;DHT22;48483;44.640;7.494;2023-07-29T04:42:10;22.40;99.90
39957;DHT22;48483;44.640;7.494;2023-07-29T04:44:37;22.40;99.90
39957;DHT22;48483;44.640;7.494;2023-07-29T04:47:04;22.40;99.90
39957;DHT22;48483;44.640;7.494;2023-07-29T04:49:32;22.40;99.90
39957;DHT22;48483;44.640;7.494;2023-07-29T04:51:59;22.40;99.90
39957;DHT22;48483;44.640;7.494;2023-07-29T04:54:25;22.40;99.90
39957;DHT22;48483;44.640;7.494;2023-07-29T04:56:52;22.40;99.90
39957;DHT22;48483;44.640;7.494;2023-07-29T04:59:19;22.40;99.90
39957;DHT22;48483;44.640;7.494;2023-07-29T05:01:46;22.40;99.90
39957;DHT22;48483;44.640;7.494;2023-07-29T05:04:13;22.40;99.90
39957;DHT22;48483;44.640;7.494;2023-07-29T05:06:42;22.40;99.90
39957;DHT22;48483;44.640;7.494;2023-07-29T05:09:16;22.40;99.90
39957;DHT22;48483;44.640;7.494;2023-07-29T05:11:43;22.40;99.90
39957;DHT22;48483;44.640;7.494;2023-07-29T05:14:12;22.50;99.90
39957;DHT22;48483;44.640;7.494;2023-07-29T05:16:39;22.50;99.90
39957;DHT22;48483;44.640;7.494;2023-07-29T05:19:06;22.50;99.90
39957;DHT22;48483;44.640;7.494;2023-07-29T05:21:33;22.50;99.90
39957;DHT22;48483;44.640;7.494;2023-07-29T05:24:01;22.60;99.90
39957;DHT22;48483;44.640;7.494;2023-07-29T05:26:28;22.60;99.90
39957;DHT22;48483;44.640;7.494;2023-07-29T05:28:55;22.60;99.90
39957;DHT22;48483;44.640;7.494;2023-07-29T05:31:22;22.60;99.90
39957;DHT22;48483;44.640;7.494;2023-07-29T05:33:49;22.70;99.90
39957;DHT22;48483;44.640;7.494;2023-07-29T05:36:15;22.60;99.90
39957;DHT22;48483;44.640;7.494;2023-07-29T05:38:42;22.70;99.90
39957;DHT22;48483;44.640;7.494;2023-07-29T05:41:10;22.70;99.90
39957;DHT22;48483;44.640;7.494;2023-07-29T05:43:37;22.80;99.90
39957;DHT22;48483;44.640;7.494;2023-07-29T05:46:04;22.80;99.90
39957;DHT22;48483;44.640;7.494;2023-07-29T05:48:30;22.80;99.90
39957;DHT22;48483;44.640;7.494;2023-07-29T05:50:57;22.80;99.90
39957;DHT22;48483;44.640;7.494;2023-07-29T05:53:24;22.90;99.90
39957;DHT22;48483;44.640;7.494;2023-07-29T05:55:51;23.00;99.90
39957;DHT22;48483;44.640;7.494;2023-07-29T05:58:19;23.00;99.90
39957;DHT22;48483;44.640;7.494;2023-07-29T06:00:45;23.00;99.90
39957;DHT22;48483;44.640;7.494;2023-07-29T06:03:12;23.00;99.90
39957;DHT22;48483;44.640;7.494;2023-07-29T06:05:39;23.00;99.90
39957;DHT22;48483;44.640;7.494;2023-07-29T06:08:06;23.20;99.90
39957;DHT22;48483;44.640;7.494;2023-07-29T06:10:35;23.60;99.90
39957;DHT22;48483;44.640;7.494;2023-07-29T06:13:01;24.40;99.90
39957;DHT22;48483;44.640;7.494;2023-07-29T06:15:29;25.20;99.90
39957;DHT22;48483;44.640;7.494;2023-07-29T06:17:56;25.90;99.90
39957;DHT22;48483;44.640;7.494;2023-07-29T06:20:23;25.70;99.90
39957;DHT22;48483;44.640;7.494;2023-07-29T06:22:49;24.90;99.90
39957;DHT22;48483;44.640;7.494;2023-07-29T06:25:16;24.40;99.90
39957;DHT22;48483;44.640;7.494;2023-07-29T06:27:43;24.00;99.90
39957;DHT22;48483;44.640;7.494;2023-07-29T06:30:10;23.80;99.90
39957;DHT22;48483;44.640;7.494;2023-07-29T06:32:38;23.80;99.90
39957;DHT22;48483;44.640;7.494;2023-07-29T06:35:05;23.80;99.90
39957;DHT22;48483;44.640;7.494;2023-07-29T06:37:32;23.70;99.90
39957;DHT22;48483;44.640;7.494;2023-07-29T06:39:59;23.80;99.90
39957;DHT22;48483;44.640;7.494;2023-07-29T06:42:26;23.90;99.90
39957;DHT22;48483;44.640;7.494;2023-07-29T06:44:53;23.90;99.90
39957;DHT22;48483;44.640;7.494;2023-07-29T06:47:19;24.00;99.90
39957;DHT22;48483;44.640;7.494;2023-07-29T06:49:47;24.10;99.90
39957;DHT22;48483;44.640;7.494;2023-07-29T06:52:14;24.10;99.90
39957;DHT22;48483;44.640;7.494;2023-07-29T06:54:41;24.20;99.90
39957;DHT22;48483;44.640;7.494;2023-07-29T06:57:07;24.30;99.90
39957;DHT22;48483;44.640;7.494;2023-07-29T06:59:34;24.40;99.90
39957;DHT22;48483;44.640;7.494;2023-07-29T07:02:01;24.50;99.90
39957;DHT22;48483;44.640;7.494;2023-07-29T07:04:28;24.50;99.90
39957;DHT22;48483;44.640;7.494;2023-07-29T07:06:56;24.40;99.90
39957;DHT22;48483;44.640;7.494;2023-07-29T07:09:22;24.40;99.90
39957;DHT22;48483;44.640;7.494;2023-07-29T07:11:49;24.30;99.90
39957;DHT22;48483;44.640;7.494;2023-07-29T07:14:16;24.30;99.90
39957;DHT22;48483;44.640;7.494;2023-07-29T07:16:42;24.40;99.90
39957;DHT22;48483;44.640;7.494;2023-07-29T07:19:09;24.40;99.90
39957;DHT22;48483;44.640;7.494;2023-07-29T07:21:36;24.50;99.90
39957;DHT22;48483;44.640;7.494;2023-07-29T07:24:04;24.60;99.90
39957;DHT22;48483;44.640;7.494;2023-07-29T07:26:31;24.70;99.90
39957;DHT22;48483;44.640;7.494;2023-07-29T07:28:57;24.60;99.90
39957;DHT22;48483;44.640;7.494;2023-07-29T07:31:24;24.80;99.90
39957;DHT22;48483;44.640;7.494;2023-07-29T07:33:51;24.90;99.90
39957;DHT22;48483;44.640;7.494;2023-07-29T07:36:17;25.00;99.90
39957;DHT22;48483;44.640;7.494;2023-07-29T07:38:44;24.80;99.90
39957;DHT22;48483;44.640;7.494;2023-07-29T07:41:12;24.80;99.90
39957;DHT22;48483;44.640;7.494;2023-07-29T07:43:39;25.00;99.90
39957;DHT22;48483;44.640;7.494;2023-07-29T07:46:05;25.10;99.90
39957;DHT22;48483;44.640;7.494;2023-07-29T07:48:32;25.10;99.90
39957;DHT22;48483;44.640;7.494;2023-07-29T07:50:59;25.20;99.90
39957;DHT22;48483;44.640;7.494;2023-07-29T07:53:26;25.10;99.90
39957;DHT22;48483;44.640;7.494;2023-07-29T07:55:53;25.20;99.90
39957;DHT22;48483;44.640;7.494;2023-07-29T07:58:21;25.20;99.90
39957;DHT22;48483;44.640;7.494;2023-07-29T08:00:47;25.30;99.90
39957;DHT22;48483;44.640;7.494;2023-07-29T08:03:14;25.50;99.90
39957;DHT22;48483;44.640;7.494;2023-07-29T08:05:41;25.50;99.90
39957;DHT22;48483;44.640;7.494;2023-07-29T08:08:07;25.60;99.90
39957;DHT22;48483;44.640;7.494;2023-07-29T08:10:34;25.70;99.90
39957;DHT22;48483;44.640;7.494;2023-07-29T08:13:01;25.60;99.90
39957;DHT22;48483;44.640;7.494;2023-07-29T08:15:29;25.60;99.90
39957;DHT22;48483;44.640;7.494;2023-07-29T08:17:55;25.80;99.90
39957;DHT22;48483;44.640;7.494;2023-07-29T08:20:22;25.90;99.90
39957;DHT22;48483;44.640;7.494;2023-07-29T08:22:49;26.10;99.90
39957;DHT22;48483;44.640;7.494;2023-07-29T08:25:15;26.10;99.90
39957;DHT22;48483;44.640;7.494;2023-07-29T08:27:42;26.10;99.90
39957;DHT22;48483;44.640;7.494;2023-07-29T08:30:09;26.10;99.90
39957;DHT22;48483;44.640;7.494;2023-07-29T08:32:37;26.10;99.90
39957;DHT22;48483;44.640;7.494;2023-07-29T08:35:04;26.30;99.90
39957;DHT22;48483;44.640;7.494;2023-07-29T08:37:31;26.40;99.90
39957;DHT22;48483;44.640;7.494;2023-07-29T08:39:58;26.40;99.90
39957;DHT22;48483;44.640;7.494;2023-07-29T08:42:29;26.40;99.90
39957;DHT22;48483;44.640;7.494;2023-07-29T08:45:06;26.40;99.90
39957;DHT22;48483;44.640;7.494;2023-07-29T08:47:34;26.30;99.90
39957;DHT22;48483;44.640;7.494;2023-07-29T08:50:03;26.30;99.90
39957;DHT22;48483;44.640;7.494;2023-07-29T08:52:33;26.40;99.90
39957;DHT22;48483;44.640;7.494;2023-07-29T08:55:01;26.30;99.90
39957;DHT22;48483;44.640;7.494;2023-07-29T08:57:28;26.30;99.90
39957;DHT22;48483;44.640;7.494;2023-07-29T08:59:56;26.40;99.90
39957;DHT22;48483;44.640;7.494;2023-07-29T09:02:24;26.60;99.90
39957;DHT22;48483;44.640;7.494;2023-07-29T09:04:50;26.70;99.90
39957;DHT22;48483;44.640;7.494;2023-07-29T09:07:19;26.80;99.90
39957;DHT22;48483;44.640;7.494;2023-07-29T09:09:47;26.80;99.90
39957;DHT22;48483;44.640;7.494;2023-07-29T09:12:13;26.60;99.90
39957;DHT22;48483;44.640;7.494;2023-07-29T09:14:40;26.70;99.90
39957;DHT22;48483;44.640;7.494;2023-07-29T09:17:08;26.70;99.90
39957;DHT22;48483;44.640;7.494;2023-07-29T09:19:35;26.50;99.90
39957;DHT22;48483;44.640;7.494;2023-07-29T09:22:01;26.50;99.90
39957;DHT22;48483;44.640;7.494;2023-07-29T09:24:30;26.60;99.90
39957;DHT22;48483;44.640;7.494;2023-07-29T09:26:58;26.80;99.90
39957;DHT22;48483;44.640;7.494;2023-07-29T09:29:27;26.90;99.90
39957;DHT22;48483;44.640;7.494;2023-07-29T09:31:54;27.00;99.90
39957;DHT22;48483;44.640;7.494;2023-07-29T09:34:23;27.10;99.90
39957;DHT22;48483;44.640;7.494;2023-07-29T09:36:50;27.10;99.90
39957;DHT22;48483;44.640;7.494;2023-07-29T09:39:17;27.20;99.90
39957;DHT22;48483;44.640;7.494;2023-07-29T09:41:48;27.10;99.90
39957;DHT22;48483;44.640;7.494;2023-07-29T09:44:15;27.00;99.90
39957;DHT22;48483;44.640;7.494;2023-07-29T09:46:46;27.10;99.90
39957;DHT22;48483;44.640;7.494;2023-07-29T09:49:12;27.20;99.90
39957;DHT22;48483;44.640;7.494;2023-07-29T09:51:39;27.40;99.90
39957;DHT22;48483;44.640;7.494;2023-07-29T09:54:07;27.30;99.90
39957;DHT22;48483;44.640;7.494;2023-07-29T09:56:39;27.10;99.90
39957;DHT22;48483;44.640;7.494;2023-07-29T09:59:10;27.00;99.90
39957;DHT22;48483;44.640;7.494;2023-07-29T10:01:37;27.20;99.90
39957;DHT22;48483;44.640;7.494;2023-07-29T10:04:04;27.20;99.90
39957;DHT22;48483;44.640;7.494;2023-07-29T10:06:33;27.20;99.90
39957;DHT22;48483;44.640;7.494;2023-07-29T10:09:01;27.30;99.90
39957;DHT22;48483;44.640;7.494;2023-07-29T10:11:28;27.50;99.90
39957;DHT22;48483;44.640;7.494;2023-07-29T10:13:55;27.60;99.90
39957;DHT22;48483;44.640;7.494;2023-07-29T10:16:24;27.70;99.90
39957;DHT22;48483;44.640;7.494;2023-07-29T10:18:51;27.80;99.90
39957;DHT22;48483;44.640;7.494;2023-07-29T10:21:21;28.00;99.90
39957;DHT22;48483;44.640;7.494;2023-07-29T10:23:50;27.90;99.90
39957;DHT22;48483;44.640;7.494;2023-07-29T10:26:20;27.90;99.90
39957;DHT22;48483;44.640;7.494;2023-07-29T10:28:48;27.80;99.90
39957;DHT22;48483;44.640;7.494;2023-07-29T10:31:19;27.80;99.90
39957;DHT22;48483;44.640;7.494;2023-07-29T10:33:49;27.70;99.90
39957;DHT22;48483;44.640;7.494;2023-07-29T10:36:16;27.60;99.90
39957;DHT22;48483;44.640;7.494;2023-07-29T10:38:43;27.60;99.90
39957;DHT22;48483;44.640;7.494;2023-07-29T10:41:09;27.70;99.90
39957;DHT22;48483;44.640;7.494;2023-07-29T10:43:37;27.70;99.90
39957;DHT22;48483;44.640;7.494;2023-07-29T10:46:14;27.70;99.90
39957;DHT22;48483;44.640;7.494;2023-07-29T10:48:45;27.80;99.90
39957;DHT22;48483;44.640;7.494;2023-07-29T10:51:27;27.80;99.90
39957;DHT22;48483;44.640;7.494;2023-07-29T10:53:58;28.00;99.90
39957;DHT22;48483;44.640;7.494;2023-07-29T10:56:27;28.00;99.90
39957;DHT22;48483;44.640;7.494;2023-07-29T10:58:55;27.90;99.90
39957;DHT22;48483;44.640;7.494;2023-07-29T11:01:27;27.90;99.90
39957;DHT22;48483;44.640;7.494;2023-07-29T11:04:26;27.90;99.90
39957;DHT22;48483;44.640;7.494;2023-07-29T11:07:22;27.90;99.90
39957;DHT22;48483;44.640;7.494;2023-07-29T11:09:59;27.90;99.90
39957;DHT22;48483;44.640;7.494;2023-07-29T11:12:40;28.00;99.90
39957;DHT22;48483;44.640;7.494;2023-07-29T11:15:26;28.00;99.90
39957;DHT22;48483;44.640;7.494;2023-07-29T11:17:55;28.10;99.90
39957;DHT22;48483;44.640;7.494;2023-07-29T11:20:23;28.10;99.90
39957;DHT22;48483;44.640;7.494;2023-07-29T11:22:52;28.10;99.90
39957;DHT22;48483;44.640;7.494;2023-07-29T11:25:21;28.20;99.90
39957;DHT22;48483;44.640;7.494;2023-07-29T11:27:48;28.10;99.90
39957;DHT22;48483;44.640;7.494;2023-07-29T11:30:15;28.10;99.90
39957;DHT22;48483;44.640;7.494;2023-07-29T11:32:43;28.10;99.90
39957;DHT22;48483;44.640;7.494;2023-07-29T11:35:12;28.20;99.90
39957;DHT22;48483;44.640;7.494;2023-07-29T11:37:42;28.20;99.90
39957;DHT22;48483;44.640;7.494;2023-07-29T11:40:13;28.20;99.90
39957;DHT22;48483;44.640;7.494;2023-07-29T11:42:41;28.20;99.90
39957;DHT22;48483;44.640;7.494;2023-07-29T11:45:08;28.20;99.60
39957;DHT22;48483;44.640;7.494;2023-07-29T11:47:36;28.30;99.60
39957;DHT22;48483;44.640;7.494;2023-07-29T11:50:04;28.50;98.70
39957;DHT22;48483;44.640;7.494;2023-07-29T11:52:32;28.50;99.20
39957;DHT22;48483;44.640;7.494;2023-07-29T11:55:00;28.40;99.20
39957;DHT22;48483;44.640;7.494;2023-07-29T11:57:30;28.50;99.10
39957;DHT22;48483;44.640;7.494;2023-07-29T11:59:57;28.50;99.30
39957;DHT22;48483;44.640;7.494;2023-07-29T12:02:24;28.70;98.90
39957;DHT22;48483;44.640;7.494;2023-07-29T12:04:52;28.70;98.40
39957;DHT22;48483;44.640;7.494;2023-07-29T12:07:20;28.70;97.80
39957;DHT22;48483;44.640;7.494;2023-07-29T12:09:47;28.60;98.00
39957;DHT22;48483;44.640;7.494;2023-07-29T12:12:15;28.60;98.20
39957;DHT22;48483;44.640;7.494;2023-07-29T12:14:45;28.60;98.30
39957;DHT22;48483;44.640;7.494;2023-07-29T12:17:15;28.50;98.30
39957;DHT22;48483;44.640;7.494;2023-07-29T12:19:42;28.50;98.40
39957;DHT22;48483;44.640;7.494;2023-07-29T12:22:10;28.50;98.50
39957;DHT22;48483;44.640;7.494;2023-07-29T12:24:38;28.50;98.60
39957;DHT22;48483;44.640;7.494;2023-07-29T12:27:09;28.50;98.70
39957;DHT22;48483;44.640;7.494;2023-07-29T12:29:40;28.50;98.80
39957;DHT22;48483;44.640;7.494;2023-07-29T12:32:09;28.60;98.80
39957;DHT22;48483;44.640;7.494;2023-07-29T12:34:37;28.50;98.50
39957;DHT22;48483;44.640;7.494;2023-07-29T12:37:06;28.60;98.20
39957;DHT22;48483;44.640;7.494;2023-07-29T12:39:34;28.60;97.70
39957;DHT22;48483;44.640;7.494;2023-07-29T12:42:02;28.60;97.50
39957;DHT22;48483;44.640;7.494;2023-07-29T12:44:31;28.60;97.50
39957;DHT22;48483;44.640;7.494;2023-07-29T12:46:58;28.70;97.40
39957;DHT22;48483;44.640;7.494;2023-07-29T12:49:26;28.70;97.30
39957;DHT22;48483;44.640;7.494;2023-07-29T12:51:55;28.80;97.30
39957;DHT22;48483;44.640;7.494;2023-07-29T12:54:21;28.80;97.00
39957;DHT22;48483;44.640;7.494;2023-07-29T12:56:48;28.80;97.00
39957;DHT22;48483;44.640;7.494;2023-07-29T12:59:15;28.90;97.10
39957;DHT22;48483;44.640;7.494;2023-07-29T13:01:42;28.90;97.10
39957;DHT22;48483;44.640;7.494;2023-07-29T13:04:09;28.80;97.20
39957;DHT22;48483;44.640;7.494;2023-07-29T13:06:38;28.80;97.20
39957;DHT22;48483;44.640;7.494;2023-07-29T13:09:05;28.70;97.30
39957;DHT22;48483;44.640;7.494;2023-07-29T13:11:32;28.70;97.20
39957;DHT22;48483;44.640;7.494;2023-07-29T13:13:59;28.80;97.40
39957;DHT22;48483;44.640;7.494;2023-07-29T13:16:27;28.90;97.30
39957;DHT22;48483;44.640;7.494;2023-07-29T13:18:53;28.90;97.30
39957;DHT22;48483;44.640;7.494;2023-07-29T13:21:20;28.90;97.50
39957;DHT22;48483;44.640;7.494;2023-07-29T13:23:48;28.80;97.40
39957;DHT22;48483;44.640;7.494;2023-07-29T13:26:15;28.90;97.50
39957;DHT22;48483;44.640;7.494;2023-07-29T13:28:42;28.80;97.60
39957;DHT22;48483;44.640;7.494;2023-07-29T13:31:08;28.70;97.60
39957;DHT22;48483;44.640;7.494;2023-07-29T13:33:35;28.80;97.60
39957;DHT22;48483;44.640;7.494;2023-07-29T13:36:02;28.90;97.50
39957;DHT22;48483;44.640;7.494;2023-07-29T13:38:29;28.80;97.50
39957;DHT22;48483;44.640;7.494;2023-07-29T13:40:58;28.90;97.40
39957;DHT22;48483;44.640;7.494;2023-07-29T13:43:24;29.00;97.30
39957;DHT22;48483;44.640;7.494;2023-07-29T13:45:51;29.00;97.50
39957;DHT22;48483;44.640;7.494;2023-07-29T13:48:18;28.90;97.70
39957;DHT22;48483;44.640;7.494;2023-07-29T13:50:46;28.80;97.40
39957;DHT22;48483;44.640;7.494;2023-07-29T13:53:13;28.80;97.00
39957;DHT22;48483;44.640;7.494;2023-07-29T13:55:39;28.80;97.30
39957;DHT22;48483;44.640;7.494;2023-07-29T13:58:07;28.80;97.40
39957;DHT22;48483;44.640;7.494;2023-07-29T14:00:34;28.90;97.10
39957;DHT22;48483;44.640;7.494;2023-07-29T14:03:01;29.00;97.00
39957;DHT22;48483;44.640;7.494;2023-07-29T14:05:27;29.10;97.00
39957;DHT22;48483;44.640;7.494;2023-07-29T14:07:54;28.90;96.70
39957;DHT22;48483;44.640;7.494;2023-07-29T14:10:21;28.90;96.80
39957;DHT22;48483;44.640;7.494;2023-07-29T14:12:47;29.00;96.80
39957;DHT22;48483;44.640;7.494;2023-07-29T14:15:16;29.00;96.70
39957;DHT22;48483;44.640;7.494;2023-07-29T14:17:42;29.10;96.80
39957;DHT22;48483;44.640;7.494;2023-07-29T14:20:10;29.20;96.50
39957;DHT22;48483;44.640;7.494;2023-07-29T14:22:37;29.30;96.30
39957;DHT22;48483;44.640;7.494;2023-07-29T14:25:04;29.40;96.60
39957;DHT22;48483;44.640;7.494;2023-07-29T14:27:31;29.30;97.10
39957;DHT22;48483;44.640;7.494;2023-07-29T14:29:58;29.40;97.40
39957;DHT22;48483;44.640;7.494;2023-07-29T14:32:26;29.40;96.90
39957;DHT22;48483;44.640;7.494;2023-07-29T14:34:53;29.30;97.10
39957;DHT22;48483;44.640;7.494;2023-07-29T14:37:19;29.20;97.20
39957;DHT22;48483;44.640;7.494;2023-07-29T14:39:46;29.10;97.20
39957;DHT22;48483;44.640;7.494;2023-07-29T14:42:13;29.10;97.10
39957;DHT22;48483;44.640;7.494;2023-07-29T14:44:41;28.90;97.10
39957;DHT22;48483;44.640;7.494;2023-07-29T14:47:08;28.80;97.30
39957;DHT22;48483;44.640;7.494;2023-07-29T14:49:36;28.90;97.40
39957;DHT22;48483;44.640;7.494;2023-07-29T14:52:03;28.90;97.40
39957;DHT22;48483;44.640;7.494;2023-07-29T14:54:30;28.90;97.40
39957;DHT22;48483;44.640;7.494;2023-07-29T14:56:56;28.90;97.60
39957;DHT22;48483;44.640;7.494;2023-07-29T14:59:23;28.90;98.10
39957;DHT22;48483;44.640;7.494;2023-07-29T15:01:50;28.80;98.20
39957;DHT22;48483;44.640;7.494;2023-07-29T15:04:16;28.80;98.50
39957;DHT22;48483;44.640;7.494;2023-07-29T15:06:45;28.80;98.70
39957;DHT22;48483;44.640;7.494;2023-07-29T15:09:12;28.80;98.80
39957;DHT22;48483;44.640;7.494;2023-07-29T15:11:38;28.80;98.50
39957;DHT22;48483;44.640;7.494;2023-07-29T15:14:05;28.80;98.50
39957;DHT22;48483;44.640;7.494;2023-07-29T15:16:32;28.80;98.50
39957;DHT22;48483;44.640;7.494;2023-07-29T15:19:00;28.80;98.40
39957;DHT22;48483;44.640;7.494;2023-07-29T15:21:26;28.80;98.00
39957;DHT22;48483;44.640;7.494;2023-07-29T15:23:55;28.90;98.00
39957;DHT22;48483;44.640;7.494;2023-07-29T15:26:21;28.80;98.00
39957;DHT22;48483;44.640;7.494;2023-07-29T15:28:48;28.80;98.10
39957;DHT22;48483;44.640;7.494;2023-07-29T15:31:15;28.80;98.20
39957;DHT22;48483;44.640;7.494;2023-07-29T15:33:42;28.80;98.10